sensor_id;sensor_type;location;lat;lon;timestamp;temperature;humidity
18794;DHT22;29610;49.022;12.114;2023-03-07T00:00:30;2.00;94.90
18794;DHT22;29610;49.022;12.114;2023-03-07T00:02:59;2.00;95.00
18794;DHT22;29610;49.022;12.114;2023-03-07T00:05:27;2.00;95.00
18794;DHT22;29610;49.022;12.114;2023-03-07T00:07:56;2.60;95.30
18794;DHT22;29610;49.022;12.114;2023-03-07T00:10:25;2.00;95.10
18794;DHT22;29610;49.022;12.114;2023-03-07T00:12:55;1.90;95.10
18794;DHT22;29610;49.022;12.114;2023-03-07T00:15:24;1.90;95.10
18794;DHT22;29610;49.022;12.114;2023-03-07T00:17:52;1.90;94.90
18794;DHT22;29610;49.022;12.114;2023-03-07T00:20:21;1.90;95.30
18794;DHT22;29610;49.022;12.114;2023-03-07T00:22:50;1.90;95.40
18794;DHT22;29610;49.022;12.114;2023-03-07T00:25:18;1.90;95.10
18794;DHT22;29610;49.022;12.114;2023-03-07T00:27:47;2.00;95.10
18794;DHT22;29610;49.022;12.114;2023-03-07T00:30:17;1.90;95.30
18794;DHT22;29610;49.022;12.114;2023-03-07T00:32:45;2.00;95.00
18794;DHT22;29610;49.022;12.114;2023-03-07T00:35:14;2.00;95.00
18794;DHT22;29610;49.022;12.114;2023-03-07T00:37:43;1.90;95.10
18794;DHT22;29610;49.022;12.114;2023-03-07T00:40:12;2.00;95.10
18794;DHT22;29610;49.022;12.114;2023-03-07T00:42:41;1.90;95.10
18794;DHT22;29610;49.022;12.114;2023-03-07T00:45:10;1.90;95.20
18794;DHT22;29610;49.022;12.114;2023-03-07T00:47:40;1.90;95.40
18794;DHT22;29610;49.022;12.114;2023-03-07T00:50:10;1.90;95.40
18794;DHT22;29610;49.022;12.114;2023-03-07T00:52:39;1.90;95.30
18794;DHT22;29610;49.022;12.114;2023-03-07T00:55:08;1.90;95.50
18794;DHT22;29610;49.022;12.114;2023-03-07T00:57:38;1.90;95.40
18794;DHT22;29610;49.022;12.114;2023-03-07T01:00:08;1.90;95.50
18794;DHT22;29610;49.022;12.114;2023-03-07T01:02:37;1.90;95.50
18794;DHT22;29610;49.022;12.114;2023-03-07T01:05:08;1.90;95.50
18794;DHT22;29610;49.022;12.114;2023-03-07T01:07:37;1.90;95.30
18794;DHT22;29610;49.022;12.114;2023-03-07T01:10:06;1.90;95.30
18794;DHT22;29610;49.022;12.114;2023-03-07T01:12:35;1.90;95.30
18794;DHT22;29610;49.022;12.114;2023-03-07T01:15:05;1.90;95.50
18794;DHT22;29610;49.022;12.114;2023-03-07T01:17:36;1.90;95.20
18794;DHT22;29610;49.022;12.114;2023-03-07T01:20:08;1.90;95.20
18794;DHT22;29610;49.022;12.114;2023-03-07T01:22:38;1.90;95.20
18794;DHT22;29610;49.022;12.114;2023-03-07T01:25:07;1.90;95.20
18794;DHT22;29610;49.022;12.114;2023-03-07T01:27:36;1.90;95.10
18794;DHT22;29610;49.022;12.114;2023-03-07T01:30:06;1.90;95.10
18794;DHT22;29610;49.022;12.114;2023-03-07T01:32:37;1.80;95.10
18794;DHT22;29610;49.022;12.114;2023-03-07T01:35:08;1.80;95.20
18794;DHT22;29610;49.022;12.114;2023-03-07T01:37:37;1.90;95.10
18794;DHT22;29610;49.022;12.114;2023-03-07T01:40:08;1.90;95.20
18794;DHT22;29610;49.022;12.114;2023-03-07T01:42:38;1.90;95.00
18794;DHT22;29610;49.022;12.114;2023-03-07T01:48:09;1.90;95.10
18794;DHT22;29610;49.022;12.114;2023-03-07T01:50:40;1.80;95.20
18794;DHT22;29610;49.022;12.114;2023-03-07T01:53:10;1.70;95.60
18794;DHT22;29610;49.022;12.114;2023-03-07T01:55:39;1.70;95.60
18794;DHT22;29610;49.022;12.114;2023-03-07T01:58:15;1.70;95.30
18794;DHT22;29610;49.022;12.114;2023-03-07T02:00:44;1.80;95.20
18794;DHT22;29610;49.022;12.114;2023-03-07T02:03:19;1.80;95.00
18794;DHT22;29610;49.022;12.114;2023-03-07T02:05:58;1.80;95.00
18794;DHT22;29610;49.022;12.114;2023-03-07T02:08:32;1.90;94.80
18794;DHT22;29610;49.022;12.114;2023-03-07T02:11:04;1.90;94.70
18794;DHT22;29610;49.022;12.114;2023-03-07T02:13:33;1.80;94.90
18794;DHT22;29610;49.022;12.114;2023-03-07T02:16:03;1.90;94.50
18794;DHT22;29610;49.022;12.114;2023-03-07T02:18:39;1.90;94.50
18794;DHT22;29610;49.022;12.114;2023-03-07T02:21:18;1.90;94.40
18794;DHT22;29610;49.022;12.114;2023-03-07T02:24:03;1.90;94.40
18794;DHT22;29610;49.022;12.114;2023-03-07T02:26:43;1.90;94.40
18794;DHT22;29610;49.022;12.114;2023-03-07T02:29:14;1.80;94.40
18794;DHT22;29610;49.022;12.114;2023-03-07T02:31:45;1.90;94.40
18794;DHT22;29610;49.022;12.114;2023-03-07T02:34:19;1.80;94.40
18794;DHT22;29610;49.022;12.114;2023-03-07T02:36:58;1.80;94.50
18794;DHT22;29610;49.022;12.114;2023-03-07T02:39:31;1.80;94.40
18794;DHT22;29610;49.022;12.114;2023-03-07T02:42:06;1.80;94.40
18794;DHT22;29610;49.022;12.114;2023-03-07T02:44:46;1.80;94.20
18794;DHT22;29610;49.022;12.114;2023-03-07T02:47:22;1.80;94.20
18794;DHT22;29610;49.022;12.114;2023-03-07T02:49:51;1.80;94.30
18794;DHT22;29610;49.022;12.114;2023-03-07T02:52:20;1.80;94.40
18794;DHT22;29610;49.022;12.114;2023-03-07T02:54:49;1.70;94.30
18794;DHT22;29610;49.022;12.114;2023-03-07T02:57:19;1.70;94.40
18794;DHT22;29610;49.022;12.114;2023-03-07T02:59:48;1.70;94.30
18794;DHT22;29610;49.022;12.114;2023-03-07T03:02:17;1.70;94.40
18794;DHT22;29610;49.022;12.114;2023-03-07T03:04:45;1.70;94.40
18794;DHT22;29610;49.022;12.114;2023-03-07T03:07:14;1.70;94.60
18794;DHT22;29610;49.022;12.114;2023-03-07T03:09:43;1.70;94.60
18794;DHT22;29610;49.022;12.114;2023-03-07T03:12:11;1.60;94.70
18794;DHT22;29610;49.022;12.114;2023-03-07T03:14:41;1.70;94.80
18794;DHT22;29610;49.022;12.114;2023-03-07T03:17:10;1.60;94.70
18794;DHT22;29610;49.022;12.114;2023-03-07T03:19:39;1.70;94.70
18794;DHT22;29610;49.022;12.114;2023-03-07T03:22:09;1.70;94.60
18794;DHT22;29610;49.022;12.114;2023-03-07T03:24:41;1.70;94.70
18794;DHT22;29610;49.022;12.114;2023-03-07T03:27:13;1.60;94.80
18794;DHT22;29610;49.022;12.114;2023-03-07T03:29:45;1.60;94.90
18794;DHT22;29610;49.022;12.114;2023-03-07T03:32:14;1.70;94.60
18794;DHT22;29610;49.022;12.114;2023-03-07T03:34:44;1.60;94.60
18794;DHT22;29610;49.022;12.114;2023-03-07T03:37:13;1.50;94.70
18794;DHT22;29610;49.022;12.114;2023-03-07T03:39:42;1.50;94.70
18794;DHT22;29610;49.022;12.114;2023-03-07T03:42:12;1.40;94.70
18794;DHT22;29610;49.022;12.114;2023-03-07T03:44:41;1.40;94.60
18794;DHT22;29610;49.022;12.114;2023-03-07T03:47:12;1.30;94.50
18794;DHT22;29610;49.022;12.114;2023-03-07T03:49:40;1.30;94.60
18794;DHT22;29610;49.022;12.114;2023-03-07T03:52:09;1.20;94.70
18794;DHT22;29610;49.022;12.114;2023-03-07T03:54:38;1.20;94.80
18794;DHT22;29610;49.022;12.114;2023-03-07T03:57:06;1.10;94.90
18794;DHT22;29610;49.022;12.114;2023-03-07T03:59:36;1.10;94.80
18794;DHT22;29610;49.022;12.114;2023-03-07T04:02:06;1.00;94.90
18794;DHT22;29610;49.022;12.114;2023-03-07T04:04:36;0.90;94.80
18794;DHT22;29610;49.022;12.114;2023-03-07T04:07:05;0.90;95.00
18794;DHT22;29610;49.022;12.114;2023-03-07T04:09:33;1.00;95.00
18794;DHT22;29610;49.022;12.114;2023-03-07T04:12:02;1.00;94.90
18794;DHT22;29610;49.022;12.114;2023-03-07T04:14:32;1.00;94.90
18794;DHT22;29610;49.022;12.114;2023-03-07T04:17:00;1.00;94.80
18794;DHT22;29610;49.022;12.114;2023-03-07T04:19:29;1.10;94.90
18794;DHT22;29610;49.022;12.114;2023-03-07T04:22:00;1.10;94.80
18794;DHT22;29610;49.022;12.114;2023-03-07T04:24:29;1.00;94.80
18794;DHT22;29610;49.022;12.114;2023-03-07T04:26:57;0.90;94.70
18794;DHT22;29610;49.022;12.114;2023-03-07T04:29:26;1.00;94.70
18794;DHT22;29610;49.022;12.114;2023-03-07T04:32:14;0.90;94.70
18794;DHT22;29610;49.022;12.114;2023-03-07T04:34:43;0.90;94.70
18794;DHT22;29610;49.022;12.114;2023-03-07T04:37:13;0.80;94.80
18794;DHT22;29610;49.022;12.114;2023-03-07T04:39:41;0.70;94.70
18794;DHT22;29610;49.022;12.114;2023-03-07T04:42:10;0.70;94.90
18794;DHT22;29610;49.022;12.114;2023-03-07T04:44:39;0.70;95.10
18794;DHT22;29610;49.022;12.114;2023-03-07T04:47:07;0.70;95.00
18794;DHT22;29610;49.022;12.114;2023-03-07T04:49:37;0.60;95.20
18794;DHT22;29610;49.022;12.114;2023-03-07T04:52:06;0.60;95.30
18794;DHT22;29610;49.022;12.114;2023-03-07T04:54:36;0.60;95.30
18794;DHT22;29610;49.022;12.114;2023-03-07T04:57:07;0.70;95.50
18794;DHT22;29610;49.022;12.114;2023-03-07T04:59:36;0.80;95.50
18794;DHT22;29610;49.022;12.114;2023-03-07T05:02:06;0.90;95.50
18794;DHT22;29610;49.022;12.114;2023-03-07T05:04:36;1.00;95.30
18794;DHT22;29610;49.022;12.114;2023-03-07T05:07:05;1.00;95.40
18794;DHT22;29610;49.022;12.114;2023-03-07T05:09:33;1.10;95.30
18794;DHT22;29610;49.022;12.114;2023-03-07T05:12:04;1.20;95.20
18794;DHT22;29610;49.022;12.114;2023-03-07T05:14:34;1.20;95.20
18794;DHT22;29610;49.022;12.114;2023-03-07T05:17:02;1.30;95.20
18794;DHT22;29610;49.022;12.114;2023-03-07T05:19:31;1.30;95.10
18794;DHT22;29610;49.022;12.114;2023-03-07T05:22:00;1.30;95.10
18794;DHT22;29610;49.022;12.114;2023-03-07T05:24:29;1.30;95.00
18794;DHT22;29610;49.022;12.114;2023-03-07T05:27:00;1.40;95.00
18794;DHT22;29610;49.022;12.114;2023-03-07T05:29:29;1.40;94.90
18794;DHT22;29610;49.022;12.114;2023-03-07T05:31:58;1.50;94.90
18794;DHT22;29610;49.022;12.114;2023-03-07T05:34:28;1.50;94.70
18794;DHT22;29610;49.022;12.114;2023-03-07T05:36:56;1.60;94.80
18794;DHT22;29610;49.022;12.114;2023-03-07T05:39:26;1.60;94.70
18794;DHT22;29610;49.022;12.114;2023-03-07T05:41:56;1.60;94.60
18794;DHT22;29610;49.022;12.114;2023-03-07T05:44:26;1.60;94.50
18794;DHT22;29610;49.022;12.114;2023-03-07T05:46:55;1.60;94.60
18794;DHT22;29610;49.022;12.114;2023-03-07T05:49:24;1.60;94.70
18794;DHT22;29610;49.022;12.114;2023-03-07T05:51:53;1.70;94.50
18794;DHT22;29610;49.022;12.114;2023-03-07T05:54:21;1.70;94.40
18794;DHT22;29610;49.022;12.114;2023-03-07T05:56:50;1.80;94.30
18794;DHT22;29610;49.022;12.114;2023-03-07T05:59:19;1.80;94.30
18794;DHT22;29610;49.022;12.114;2023-03-07T06:01:51;1.80;94.20
18794;DHT22;29610;49.022;12.114;2023-03-07T06:04:20;1.90;94.20
18794;DHT22;29610;49.022;12.114;2023-03-07T06:06:48;1.90;94.10
18794;DHT22;29610;49.022;12.114;2023-03-07T06:09:17;1.80;94.00
18794;DHT22;29610;49.022;12.114;2023-03-07T06:11:47;1.90;94.00
18794;DHT22;29610;49.022;12.114;2023-03-07T06:14:15;1.90;93.80
18794;DHT22;29610;49.022;12.114;2023-03-07T06:16:44;2.00;93.80
18794;DHT22;29610;49.022;12.114;2023-03-07T06:19:15;2.00;93.70
18794;DHT22;29610;49.022;12.114;2023-03-07T06:21:44;2.00;93.70
18794;DHT22;29610;49.022;12.114;2023-03-07T06:24:13;2.00;93.80
18794;DHT22;29610;49.022;12.114;2023-03-07T06:26:42;2.00;93.70
18794;DHT22;29610;49.022;12.114;2023-03-07T06:29:12;2.10;93.80
18794;DHT22;29610;49.022;12.114;2023-03-07T06:31:41;2.10;93.60
18794;DHT22;29610;49.022;12.114;2023-03-07T06:34:10;2.90;94.10
18794;DHT22;29610;49.022;12.114;2023-03-07T06:36:40;2.10;93.70
18794;DHT22;29610;49.022;12.114;2023-03-07T06:39:08;2.20;93.60
18794;DHT22;29610;49.022;12.114;2023-03-07T06:41:37;2.20;93.60
18794;DHT22;29610;49.022;12.114;2023-03-07T06:44:06;2.20;93.50
18794;DHT22;29610;49.022;12.114;2023-03-07T06:46:36;2.30;93.50
18794;DHT22;29610;49.022;12.114;2023-03-07T06:49:11;2.30;93.70
18794;DHT22;29610;49.022;12.114;2023-03-07T06:51:43;2.30;93.40
18794;DHT22;29610;49.022;12.114;2023-03-07T06:54:11;2.30;93.50
18794;DHT22;29610;49.022;12.114;2023-03-07T06:56:40;2.40;93.50
18794;DHT22;29610;49.022;12.114;2023-03-07T06:59:14;2.60;93.30
18794;DHT22;29610;49.022;12.114;2023-03-07T07:01:46;2.80;93.20
18794;DHT22;29610;49.022;12.114;2023-03-07T07:04:18;2.90;93.00
18794;DHT22;29610;49.022;12.114;2023-03-07T07:06:49;3.00;92.60
18794;DHT22;29610;49.022;12.114;2023-03-07T07:09:18;3.10;92.30
18794;DHT22;29610;49.022;12.114;2023-03-07T07:11:47;3.10;91.90
18794;DHT22;29610;49.022;12.114;2023-03-07T07:14:15;3.20;92.10
18794;DHT22;29610;49.022;12.114;2023-03-07T07:16:44;3.40;92.00
18794;DHT22;29610;49.022;12.114;2023-03-07T07:19:13;3.50;91.50
18794;DHT22;29610;49.022;12.114;2023-03-07T07:21:42;3.60;91.70
18794;DHT22;29610;49.022;12.114;2023-03-07T07:24:13;3.60;91.50
18794;DHT22;29610;49.022;12.114;2023-03-07T07:26:42;3.70;91.60
18794;DHT22;29610;49.022;12.114;2023-03-07T07:29:11;3.90;91.50
18794;DHT22;29610;49.022;12.114;2023-03-07T07:31:40;4.00;91.00
18794;DHT22;29610;49.022;12.114;2023-03-07T07:34:09;4.10;90.70
18794;DHT22;29610;49.022;12.114;2023-03-07T07:36:38;4.00;90.40
18794;DHT22;29610;49.022;12.114;2023-03-07T07:39:07;4.00;90.70
18794;DHT22;29610;49.022;12.114;2023-03-07T07:41:43;4.00;90.60
18794;DHT22;29610;49.022;12.114;2023-03-07T07:44:15;4.20;90.90
18794;DHT22;29610;49.022;12.114;2023-03-07T07:46:53;4.30;90.70
18794;DHT22;29610;49.022;12.114;2023-03-07T07:49:22;4.40;90.10
18794;DHT22;29610;49.022;12.114;2023-03-07T07:51:51;4.30;90.20
18794;DHT22;29610;49.022;12.114;2023-03-07T07:54:20;4.40;90.00
18794;DHT22;29610;49.022;12.114;2023-03-07T07:56:50;4.30;90.10
18794;DHT22;29610;49.022;12.114;2023-03-07T07:59:20;4.40;90.00
18794;DHT22;29610;49.022;12.114;2023-03-07T08:01:49;4.30;90.20
18794;DHT22;29610;49.022;12.114;2023-03-07T08:04:18;4.50;90.10
18794;DHT22;29610;49.022;12.114;2023-03-07T08:06:47;4.40;89.80
18794;DHT22;29610;49.022;12.114;2023-03-07T08:09:15;4.50;90.10
18794;DHT22;29610;49.022;12.114;2023-03-07T08:11:44;4.60;89.60
18794;DHT22;29610;49.022;12.114;2023-03-07T08:14:14;4.60;88.80
18794;DHT22;29610;49.022;12.114;2023-03-07T08:16:43;4.70;88.30
18794;DHT22;29610;49.022;12.114;2023-03-07T08:19:11;4.60;88.20
18794;DHT22;29610;49.022;12.114;2023-03-07T08:21:40;4.60;88.90
18794;DHT22;29610;49.022;12.114;2023-03-07T08:24:08;4.70;88.90
18794;DHT22;29610;49.022;12.114;2023-03-07T08:26:38;4.90;89.30
18794;DHT22;29610;49.022;12.114;2023-03-07T08:29:07;5.00;87.60
18794;DHT22;29610;49.022;12.114;2023-03-07T08:31:37;5.00;88.60
18794;DHT22;29610;49.022;12.114;2023-03-07T08:34:06;5.10;86.90
18794;DHT22;29610;49.022;12.114;2023-03-07T08:36:34;5.10;87.10
18794;DHT22;29610;49.022;12.114;2023-03-07T08:39:03;5.00;87.40
18794;DHT22;29610;49.022;12.114;2023-03-07T08:41:33;5.10;87.30
18794;DHT22;29610;49.022;12.114;2023-03-07T08:44:02;5.30;86.80
18794;DHT22;29610;49.022;12.114;2023-03-07T08:46:31;5.40;86.00
18794;DHT22;29610;49.022;12.114;2023-03-07T08:49:01;5.50;86.50
18794;DHT22;29610;49.022;12.114;2023-03-07T08:51:30;5.40;85.00
18794;DHT22;29610;49.022;12.114;2023-03-07T08:53:58;5.60;86.50
18794;DHT22;29610;49.022;12.114;2023-03-07T08:56:27;5.90;85.80
18794;DHT22;29610;49.022;12.114;2023-03-07T08:58:56;5.90;84.50
18794;DHT22;29610;49.022;12.114;2023-03-07T09:01:25;6.00;84.60
18794;DHT22;29610;49.022;12.114;2023-03-07T09:03:53;6.10;84.40
18794;DHT22;29610;49.022;12.114;2023-03-07T09:06:23;6.10;83.10
18794;DHT22;29610;49.022;12.114;2023-03-07T09:08:52;6.00;83.60
18794;DHT22;29610;49.022;12.114;2023-03-07T09:11:20;5.90;84.40
18794;DHT22;29610;49.022;12.114;2023-03-07T09:13:49;6.00;83.60
18794;DHT22;29610;49.022;12.114;2023-03-07T09:16:19;6.20;83.10
18794;DHT22;29610;49.022;12.114;2023-03-07T09:18:49;6.10;83.00
18794;DHT22;29610;49.022;12.114;2023-03-07T09:21:18;6.10;83.20
18794;DHT22;29610;49.022;12.114;2023-03-07T09:23:48;6.30;83.10
18794;DHT22;29610;49.022;12.114;2023-03-07T09:26:17;6.20;82.00
18794;DHT22;29610;49.022;12.114;2023-03-07T09:28:45;6.30;81.80
18794;DHT22;29610;49.022;12.114;2023-03-07T09:31:14;6.40;82.40
18794;DHT22;29610;49.022;12.114;2023-03-07T09:33:43;6.20;82.50
18794;DHT22;29610;49.022;12.114;2023-03-07T09:36:13;6.30;82.20
18794;DHT22;29610;49.022;12.114;2023-03-07T09:38:44;6.60;82.30
18794;DHT22;29610;49.022;12.114;2023-03-07T09:41:52;6.90;81.60
18794;DHT22;29610;49.022;12.114;2023-03-07T09:44:33;7.20;81.00
18794;DHT22;29610;49.022;12.114;2023-03-07T09:47:57;7.60;79.80
18794;DHT22;29610;49.022;12.114;2023-03-07T09:50:45;7.90;78.60
18794;DHT22;29610;49.022;12.114;2023-03-07T09:53:22;7.90;77.30
18794;DHT22;29610;49.022;12.114;2023-03-07T09:56:07;7.90;77.60
18794;DHT22;29610;49.022;12.114;2023-03-07T09:58:43;7.70;76.70
18794;DHT22;29610;49.022;12.114;2023-03-07T10:01:21;7.80;77.10
18794;DHT22;29610;49.022;12.114;2023-03-07T10:03:59;8.00;77.70
18794;DHT22;29610;49.022;12.114;2023-03-07T10:06:34;8.10;76.70
18794;DHT22;29610;49.022;12.114;2023-03-07T10:09:09;8.30;76.80
18794;DHT22;29610;49.022;12.114;2023-03-07T10:12:04;8.20;75.40
18794;DHT22;29610;49.022;12.114;2023-03-07T10:15:22;8.20;75.50
18794;DHT22;29610;49.022;12.114;2023-03-07T10:18:28;8.30;74.60
18794;DHT22;29610;49.022;12.114;2023-03-07T10:21:13;8.50;76.00
18794;DHT22;29610;49.022;12.114;2023-03-07T10:24:12;8.70;75.00
18794;DHT22;29610;49.022;12.114;2023-03-07T10:26:59;9.10;74.30
18794;DHT22;29610;49.022;12.114;2023-03-07T10:29:37;9.40;73.10
18794;DHT22;29610;49.022;12.114;2023-03-07T10:32:19;9.30;72.70
18794;DHT22;29610;49.022;12.114;2023-03-07T10:34:53;9.00;72.00
18794;DHT22;29610;49.022;12.114;2023-03-07T10:37:39;9.20;75.10
18794;DHT22;29610;49.022;12.114;2023-03-07T10:40:22;9.10;73.60
18794;DHT22;29610;49.022;12.114;2023-03-07T10:42:53;9.50;73.20
18794;DHT22;29610;49.022;12.114;2023-03-07T10:45:23;9.60;72.10
18794;DHT22;29610;49.022;12.114;2023-03-07T10:48:00;9.60;71.50
18794;DHT22;29610;49.022;12.114;2023-03-07T10:51:05;9.30;71.90
18794;DHT22;29610;49.022;12.114;2023-03-07T10:53:36;9.50;72.70
18794;DHT22;29610;49.022;12.114;2023-03-07T10:56:12;9.70;72.30
18794;DHT22;29610;49.022;12.114;2023-03-07T10:58:59;10.10;70.80
18794;DHT22;29610;49.022;12.114;2023-03-07T11:01:29;10.40;69.00
18794;DHT22;29610;49.022;12.114;2023-03-07T11:04:02;10.30;68.70
18794;DHT22;29610;49.022;12.114;2023-03-07T11:06:35;10.20;68.60
18794;DHT22;29610;49.022;12.114;2023-03-07T11:09:08;10.20;68.20
18794;DHT22;29610;49.022;12.114;2023-03-07T11:11:48;10.20;69.90
18794;DHT22;29610;49.022;12.114;2023-03-07T11:14:20;10.40;67.50
18794;DHT22;29610;49.022;12.114;2023-03-07T11:16:51;10.70;67.60
18794;DHT22;29610;49.022;12.114;2023-03-07T11:19:39;10.80;67.40
18794;DHT22;29610;49.022;12.114;2023-03-07T11:22:22;10.80;64.70
18794;DHT22;29610;49.022;12.114;2023-03-07T11:24:59;10.90;66.30
18794;DHT22;29610;49.022;12.114;2023-03-07T11:27:33;11.20;65.60
18794;DHT22;29610;49.022;12.114;2023-03-07T11:30:17;11.40;64.80
18794;DHT22;29610;49.022;12.114;2023-03-07T11:35:58;10.50;64.80
18794;DHT22;29610;49.022;12.114;2023-03-07T11:38:40;10.00;64.80
18794;DHT22;29610;49.022;12.114;2023-03-07T11:41:22;9.90;67.20
18794;DHT22;29610;49.022;12.114;2023-03-07T11:44:16;9.40;67.30
18794;DHT22;29610;49.022;12.114;2023-03-07T11:47:12;9.00;70.00
18794;DHT22;29610;49.022;12.114;2023-03-07T11:50:06;9.50;70.10
18794;DHT22;29610;49.022;12.114;2023-03-07T11:53:04;9.70;69.30
18794;DHT22;29610;49.022;12.114;2023-03-07T11:55:49;9.50;68.90
18794;DHT22;29610;49.022;12.114;2023-03-07T11:58:40;9.20;69.20
18794;DHT22;29610;49.022;12.114;2023-03-07T12:01:27;9.20;69.40
18794;DHT22;29610;49.022;12.114;2023-03-07T12:04:28;9.10;69.90
18794;DHT22;29610;49.022;12.114;2023-03-07T12:07:36;9.30;70.10
18794;DHT22;29610;49.022;12.114;2023-03-07T12:10:30;9.40;67.40
18794;DHT22;29610;49.022;12.114;2023-03-07T12:13:16;9.10;67.50
18794;DHT22;29610;49.022;12.114;2023-03-07T12:16:04;9.20;68.10
18794;DHT22;29610;49.022;12.114;2023-03-07T12:22:18;9.10;67.70
18794;DHT22;29610;49.022;12.114;2023-03-07T12:25:12;9.10;67.20
18794;DHT22;29610;49.022;12.114;2023-03-07T12:28:05;9.30;67.40
18794;DHT22;29610;49.022;12.114;2023-03-07T12:30:53;9.50;66.70
18794;DHT22;29610;49.022;12.114;2023-03-07T12:36:30;9.80;66.40
18794;DHT22;29610;49.022;12.114;2023-03-07T12:39:09;10.20;65.00
18794;DHT22;29610;49.022;12.114;2023-03-07T12:41:53;10.20;62.10
18794;DHT22;29610;49.022;12.114;2023-03-07T12:44:36;10.30;64.70
18794;DHT22;29610;49.022;12.114;2023-03-07T12:47:15;10.10;62.70
18794;DHT22;29610;49.022;12.114;2023-03-07T12:49:52;9.90;63.70
18794;DHT22;29610;49.022;12.114;2023-03-07T12:52:40;9.90;64.00
18794;DHT22;29610;49.022;12.114;2023-03-07T12:55:19;9.80;64.80
18794;DHT22;29610;49.022;12.114;2023-03-07T12:57:59;9.40;63.60
18794;DHT22;29610;49.022;12.114;2023-03-07T13:00:39;9.20;64.60
18794;DHT22;29610;49.022;12.114;2023-03-07T13:03:16;9.10;64.60
18794;DHT22;29610;49.022;12.114;2023-03-07T13:05:49;9.20;65.80
18794;DHT22;29610;49.022;12.114;2023-03-07T13:08:21;9.00;65.00
18794;DHT22;29610;49.022;12.114;2023-03-07T13:10:51;9.20;65.00
18794;DHT22;29610;49.022;12.114;2023-03-07T13:13:49;8.90;64.30
18794;DHT22;29610;49.022;12.114;2023-03-07T13:16:45;9.00;64.60
18794;DHT22;29610;49.022;12.114;2023-03-07T13:19:42;9.30;65.60
18794;DHT22;29610;49.022;12.114;2023-03-07T13:22:56;10.00;61.80
18794;DHT22;29610;49.022;12.114;2023-03-07T13:28:50;9.90;62.40
18794;DHT22;29610;49.022;12.114;2023-03-07T13:34:44;9.10;63.10
18794;DHT22;29610;49.022;12.114;2023-03-07T13:37:54;8.80;63.90
18794;DHT22;29610;49.022;12.114;2023-03-07T13:40:51;8.40;64.80
18794;DHT22;29610;49.022;12.114;2023-03-07T13:46:48;8.00;66.40
18794;DHT22;29610;49.022;12.114;2023-03-07T13:49:44;8.30;66.30
18794;DHT22;29610;49.022;12.114;2023-03-07T13:52:39;8.10;65.30
18794;DHT22;29610;49.022;12.114;2023-03-07T13:55:29;7.90;64.90
18794;DHT22;29610;49.022;12.114;2023-03-07T13:58:17;7.90;66.20
18794;DHT22;29610;49.022;12.114;2023-03-07T14:00:54;7.80;65.40
18794;DHT22;29610;49.022;12.114;2023-03-07T14:03:30;7.80;66.30
18794;DHT22;29610;49.022;12.114;2023-03-07T14:06:08;8.10;65.70
18794;DHT22;29610;49.022;12.114;2023-03-07T14:08:41;8.30;64.50
18794;DHT22;29610;49.022;12.114;2023-03-07T14:11:17;8.20;65.30
18794;DHT22;29610;49.022;12.114;2023-03-07T14:14:18;8.20;65.30
18794;DHT22;29610;49.022;12.114;2023-03-07T14:20:13;7.80;64.90
18794;DHT22;29610;49.022;12.114;2023-03-07T14:23:01;7.60;66.60
18794;DHT22;29610;49.022;12.114;2023-03-07T14:25:42;7.40;66.80
18794;DHT22;29610;49.022;12.114;2023-03-07T14:28:20;7.40;67.10
18794;DHT22;29610;49.022;12.114;2023-03-07T14:30:54;7.40;67.50
18794;DHT22;29610;49.022;12.114;2023-03-07T14:33:31;7.50;67.70
18794;DHT22;29610;49.022;12.114;2023-03-07T14:36:14;7.70;66.80
18794;DHT22;29610;49.022;12.114;2023-03-07T14:38:47;8.30;66.90
18794;DHT22;29610;49.022;12.114;2023-03-07T14:41:29;8.90;65.60
18794;DHT22;29610;49.022;12.114;2023-03-07T14:44:21;9.10;64.80
18794;DHT22;29610;49.022;12.114;2023-03-07T14:47:11;9.10;64.20
18794;DHT22;29610;49.022;12.114;2023-03-07T14:50:05;8.80;62.10
18794;DHT22;29610;49.022;12.114;2023-03-07T14:52:38;8.80;63.90
18794;DHT22;29610;49.022;12.114;2023-03-07T14:55:15;8.60;63.70
18794;DHT22;29610;49.022;12.114;2023-03-07T14:57:47;8.70;63.50
18794;DHT22;29610;49.022;12.114;2023-03-07T15:00:25;8.70;63.40
18794;DHT22;29610;49.022;12.114;2023-03-07T15:02:56;8.70;64.60
18794;DHT22;29610;49.022;12.114;2023-03-07T15:05:31;8.70;64.00
18794;DHT22;29610;49.022;12.114;2023-03-07T15:08:03;8.30;63.00
18794;DHT22;29610;49.022;12.114;2023-03-07T15:10:46;7.90;63.20
18794;DHT22;29610;49.022;12.114;2023-03-07T15:13:21;7.60;63.80
18794;DHT22;29610;49.022;12.114;2023-03-07T15:15:59;7.40;64.70
18794;DHT22;29610;49.022;12.114;2023-03-07T15:18:33;7.40;65.30
18794;DHT22;29610;49.022;12.114;2023-03-07T15:21:05;7.30;65.80
18794;DHT22;29610;49.022;12.114;2023-03-07T15:23:41;7.30;65.70
18794;DHT22;29610;49.022;12.114;2023-03-07T15:26:14;7.30;65.60
18794;DHT22;29610;49.022;12.114;2023-03-07T15:28:47;7.20;66.10
18794;DHT22;29610;49.022;12.114;2023-03-07T15:31:21;7.20;66.80
18794;DHT22;29610;49.022;12.114;2023-03-07T15:33:50;7.20;66.90
18794;DHT22;29610;49.022;12.114;2023-03-07T15:36:24;7.10;67.20
18794;DHT22;29610;49.022;12.114;2023-03-07T15:39:27;7.00;67.40
18794;DHT22;29610;49.022;12.114;2023-03-07T15:42:03;7.00;67.50
18794;DHT22;29610;49.022;12.114;2023-03-07T15:44:33;7.00;67.90
18794;DHT22;29610;49.022;12.114;2023-03-07T15:47:11;6.90;67.80
18794;DHT22;29610;49.022;12.114;2023-03-07T15:49:45;6.80;66.30
18794;DHT22;29610;49.022;12.114;2023-03-07T15:52:27;6.60;66.00
18794;DHT22;29610;49.022;12.114;2023-03-07T15:55:00;6.50;66.20
18794;DHT22;29610;49.022;12.114;2023-03-07T15:57:34;6.40;66.20
18794;DHT22;29610;49.022;12.114;2023-03-07T16:00:17;6.40;65.90
18794;DHT22;29610;49.022;12.114;2023-03-07T16:02:49;6.30;66.10
18794;DHT22;29610;49.022;12.114;2023-03-07T16:05:37;6.20;66.10
18794;DHT22;29610;49.022;12.114;2023-03-07T16:08:14;6.30;65.80
18794;DHT22;29610;49.022;12.114;2023-03-07T16:10:49;6.30;66.00
18794;DHT22;29610;49.022;12.114;2023-03-07T16:13:25;6.30;66.00
18794;DHT22;29610;49.022;12.114;2023-03-07T16:16:01;6.30;66.10
18794;DHT22;29610;49.022;12.114;2023-03-07T16:18:32;6.30;66.30
18794;DHT22;29610;49.022;12.114;2023-03-07T16:21:01;6.20;66.10
18794;DHT22;29610;49.022;12.114;2023-03-07T16:23:30;6.00;66.50
18794;DHT22;29610;49.022;12.114;2023-03-07T16:26:02;5.80;67.10
18794;DHT22;29610;49.022;12.114;2023-03-07T16:28:33;5.90;67.30
18794;DHT22;29610;49.022;12.114;2023-03-07T16:31:02;5.60;67.20
18794;DHT22;29610;49.022;12.114;2023-03-07T16:33:30;5.40;66.80
18794;DHT22;29610;49.022;12.114;2023-03-07T16:35:59;5.40;67.50
18794;DHT22;29610;49.022;12.114;2023-03-07T16:38:27;5.30;68.50
18794;DHT22;29610;49.022;12.114;2023-03-07T16:40:56;5.20;67.90